Time;durP1;ratioP1;P1;durP2;ratioP2;P2;SDS_P1;SDS_P2;PMS_P1;PMS_P2;Temp;Humidity;BMP_temperature;BMP_pressure;BME280_temperature;BME280_humidity;BME280_pressure;Samples;Min_cycle;Max_cycle;Signal;HPM_P1;HPM_P2
2022/01/23 00:00:54;;;;;;;2.55;1.80;;;;;;;17.57;45.55;103447.00;5103613;28;20082;-58
2022/01/23 00:03:20;;;;;;;2.83;1.83;;;;;;;17.54;45.49;103448.03;5086356;28;20020;-57
2022/01/23 00:05:47;;;;;;;2.40;1.80;;;;;;;17.55;45.47;103455.19;5103004;28;20043;-56
2022/01/23 00:08:15;;;;;;;4.03;2.50;;;;;;;17.55;45.56;103443.56;5103844;28;20028;-57
2022/01/23 00:10:41;;;;;;;4.47;2.03;;;;;;;17.49;45.63;103442.09;5102612;28;20031;-57
2022/01/23 00:13:25;;;;;;;3.60;2.17;;;;;;;17.52;45.50;103455.38;5103805;28;20074;-56
2022/01/23 00:18:35;;;;;;;2.45;1.85;;;;;;;17.49;45.53;103455.56;5103786;28;20079;-57
2022/01/23 00:21:00;;;;;;;3.67;1.95;;;;;;;17.48;45.57;103452.00;5103444;28;20492;-57
2022/01/23 00:31:23;;;;;;;3.08;2.03;;;;;;;17.44;45.54;103458.53;5103543;28;20054;-57
2022/01/23 00:33:48;;;;;;;2.55;2.05;;;;;;;17.43;45.47;103450.56;5103473;28;20062;-57
2022/01/23 00:36:13;;;;;;;2.65;1.70;;;;;;;17.43;45.59;103450.56;5103163;28;20028;-57
2022/01/23 00:38:39;;;;;;;2.03;1.60;;;;;;;17.42;45.54;103448.84;5103441;28;20028;-57
2022/01/23 00:41:04;;;;;;;2.15;1.60;;;;;;;17.41;45.55;103447.97;5102424;28;20042;-55
2022/01/23 00:43:31;;;;;;;2.47;2.00;;;;;;;17.36;45.61;103438.47;5103363;28;20096;-57
2022/01/23 00:46:22;;;;;;;1.98;1.60;;;;;;;17.39;45.49;103447.22;5103296;28;20048;-56
2022/01/23 00:51:22;;;;;;;2.25;1.65;;;;;;;17.37;45.57;103462.56;5103189;28;20110;-57
2022/01/23 00:53:47;;;;;;;2.35;2.03;;;;;;;17.35;45.66;103450.19;5102934;28;20039;-58
2022/01/23 00:56:13;;;;;;;2.92;2.10;;;;;;;17.35;45.72;103452.88;5102057;28;20036;-57
2022/01/23 00:58:38;;;;;;;3.20;2.10;;;;;;;17.34;45.69;103451.16;5103382;28;20078;-57
2022/01/23 01:01:03;;;;;;;4.53;1.70;;;;;;;17.35;45.69;103463.63;5090035;28;20038;-57
2022/01/23 01:03:29;;;;;;;3.08;2.03;;;;;;;17.33;45.60;103462.84;5103400;28;20103;-57
2022/01/23 01:05:54;;;;;;;2.65;1.90;;;;;;;17.29;45.59;103448.75;5102805;28;20043;-58
2022/01/23 01:08:19;;;;;;;2.30;1.70;;;;;;;17.31;45.69;103454.88;5102945;28;20106;-58
2022/01/23 01:10:59;;;;;;;2.00;1.60;;;;;;;17.33;45.48;103454.78;5102080;28;20276;-57
2022/01/23 01:13:30;;;;;;;2.17;1.70;;;;;;;17.32;45.59;103455.75;5103315;28;20052;-56
2022/01/23 01:16:12;;;;;;;1.48;1.38;;;;;;;17.30;45.64;103449.63;5103253;28;20050;-57
2022/01/23 01:32:28;;;;;;;2.90;1.77;;;;;;;17.26;45.56;103438.19;5106003;28;20042;-57
2022/01/23 01:35:04;;;;;;;2.47;1.77;;;;;;;17.25;45.46;103433.78;5106170;28;20028;-57
2022/01/23 01:37:29;;;;;;;2.00;1.40;;;;;;;17.25;45.52;103431.09;5106956;28;20032;-57
2022/01/23 01:39:54;;;;;;;2.78;1.58;;;;;;;17.23;45.64;103433.84;5105791;28;20043;-56
2022/01/23 01:42:20;;;;;;;2.05;1.50;;;;;;;17.23;45.70;103436.53;5106773;28;20111;-57
2022/01/23 01:44:45;;;;;;;1.90;1.60;;;;;;;17.21;45.70;103422.34;5106591;28;20028;-57
2022/01/23 01:47:10;;;;;;;2.42;1.63;;;;;;;17.21;45.55;103427.72;5107090;28;20024;-58
2022/01/23 01:49:36;;;;;;;1.88;1.50;;;;;;;17.20;45.55;103431.38;5106350;28;20039;-57
2022/01/23 01:52:02;;;;;;;2.03;1.52;;;;;;;17.20;45.59;103436.75;5106666;28;20060;-57
2022/01/23 01:54:30;;;;;;;2.50;1.60;;;;;;;17.19;45.66;103443.06;5088114;28;20039;-57
2022/01/23 01:57:07;;;;;;;1.85;1.60;;;;;;;17.18;45.69;103441.34;5105091;28;20108;-57
2022/01/23 02:10:26;;;;;;;1.38;1.20;;;;;;;17.14;45.58;103444.31;5087919;28;20043;-57
2022/01/23 02:13:05;;;;;;;2.65;1.65;;;;;;;17.13;45.95;103445.28;5085967;28;20033;-58
2022/01/23 02:18:23;;;;;;;1.50;1.30;;;;;;;17.10;45.62;103440.97;5087513;28;20056;-57
2022/01/23 02:24:01;;;;;;;1.85;1.60;;;;;;;17.07;45.49;103432.22;5105866;28;20031;-58
2022/01/23 02:51:32;;;;;;;2.00;1.40;;;;;;;16.99;45.66;103427.31;5022302;28;20453;-58
2022/01/23 02:54:24;;;;;;;2.33;1.25;;;;;;;16.98;45.62;103434.50;5022165;28;20042;-58
2022/01/23 02:56:53;;;;;;;1.40;1.30;;;;;;;16.97;45.54;103438.16;5021120;28;20566;-58
2022/01/23 02:59:40;;;;;;;1.33;1.23;;;;;;;16.97;45.67;103435.47;5022306;28;20276;-57
2022/01/23 03:02:25;;;;;;;1.67;1.30;;;;;;;16.97;45.64;103419.34;5029834;28;20049;-58
2022/01/23 03:04:53;;;;;;;1.65;1.50;;;;;;;16.96;45.76;103427.53;5026508;28;20061;-57
2022/01/23 03:07:48;;;;;;;1.70;1.50;;;;;;;16.95;45.63;103441.94;5005753;28;20137;-58
2022/01/23 03:10:20;;;;;;;1.23;1.10;;;;;;;16.93;45.73;103442.00;5020683;28;20436;-57
2022/01/23 03:24:04;;;;;;;1.40;1.20;;;;;;;16.92;45.54;103439.41;5096574;28;20039;-58
2022/01/23 03:26:36;;;;;;;1.40;1.27;;;;;;;16.91;45.60;103460.06;5103131;28;20061;-58
2022/01/23 03:29:19;;;;;;;1.83;1.30;;;;;;;16.89;45.53;103455.72;5104739;28;20031;-58
2022/01/23 03:34:17;;;;;;;2.05;1.33;;;;;;;16.85;45.50;103438.91;5104197;28;20032;-58
2022/01/23 03:36:43;;;;;;;1.38;1.25;;;;;;;16.87;45.67;103450.44;5085744;28;20427;-58
2022/01/23 03:39:10;;;;;;;1.83;1.20;;;;;;;16.86;45.55;103448.69;5103221;28;20036;-57
2022/01/23 03:41:37;;;;;;;1.88;1.30;;;;;;;16.86;45.64;103451.38;5104124;28;20031;-57
2022/01/23 03:44:05;;;;;;;1.27;1.17;;;;;;;16.86;45.61;103448.69;5108415;28;20549;-57
2022/01/23 03:47:01;;;;;;;1.23;1.00;;;;;;;16.85;45.56;103441.59;5107704;28;20055;-58
2022/01/23 03:49:31;;;;;;;1.63;1.30;;;;;;;16.85;45.58;103444.28;5107351;28;20451;-56
2022/01/23 03:51:57;;;;;;;1.20;1.10;;;;;;;16.84;45.54;103439.88;5108296;28;20028;-57
2022/01/23 03:54:24;;;;;;;1.17;1.08;;;;;;;16.85;45.48;103452.34;5104819;28;20035;-58
2022/01/23 03:56:49;;;;;;;1.15;1.00;;;;;;;16.86;45.48;103450.53;5102901;28;20046;-58
2022/01/23 03:59:14;;;;;;;1.98;1.40;;;;;;;16.83;45.50;103446.22;5103978;28;20036;-58
2022/01/23 04:01:39;;;;;;;1.20;1.10;;;;;;;16.84;45.69;103447.09;5095667;28;20024;-58
2022/01/23 04:04:14;;;;;;;2.08;1.30;;;;;;;16.84;45.49;103456.00;5103661;28;20036;-58
2022/01/23 04:06:40;;;;;;;1.65;1.10;;;;;;;16.83;45.50;103462.34;5103166;28;20484;-58
2022/01/23 04:09:06;;;;;;;1.42;1.10;;;;;;;16.83;45.39;103462.34;5103280;28;20103;-57
2022/01/23 04:11:31;;;;;;;1.90;1.33;;;;;;;16.78;45.77;103461.75;5102344;28;20032;-58
2022/01/23 04:14:07;;;;;;;1.58;1.40;;;;;;;16.82;45.58;103466.00;5085291;28;20048;-58
2022/01/23 04:19:36;;;;;;;1.80;1.00;;;;;;;16.79;45.45;103468.84;5103257;28;20031;-57
2022/01/23 04:59:48;;;;;;;1.20;1.10;;;;;;;16.68;45.52;103468.59;5102825;28;20042;-58
2022/01/23 05:04:57;;;;;;;1.50;1.10;;;;;;;16.65;45.42;103466.97;5102558;28;20039;-58
2022/01/23 05:07:27;;;;;;;1.00;1.00;;;;;;;16.68;45.52;103479.34;5102429;28;20032;-58
2022/01/23 05:09:52;;;;;;;1.25;1.08;;;;;;;16.68;45.39;103479.34;5102175;28;20083;-57
2022/01/23 05:12:18;;;;;;;1.20;1.10;;;;;;;16.68;45.39;103473.97;5102859;28;20344;-58
2022/01/23 05:14:46;;;;;;;1.05;1.00;;;;;;;16.68;45.33;103465.91;5102747;28;20042;-57
2022/01/23 05:17:14;;;;;;;1.13;1.02;;;;;;;16.68;45.38;103469.44;5084584;28;20048;-58
2022/01/23 05:19:40;;;;;;;1.10;1.00;;;;;;;16.68;45.46;103468.59;5102330;28;20107;-57
2022/01/23 05:24:38;;;;;;;1.10;1.00;;;;;;;16.68;45.37;103480.19;5102281;28;20290;-57
2022/01/23 05:27:05;;;;;;;;;;;;;;;16.66;45.45;103482.13;5102022;28;20039;-57
2022/01/23 05:29:31;;;;;;;1.00;1.00;;;;;;;16.66;45.37;103479.44;5103020;28;19912;-58
2022/01/23 05:31:56;;;;;;;1.10;1.00;;;;;;;16.68;45.40;103473.97;5102617;28;20053;-58
2022/01/23 05:34:24;;;;;;;1.83;1.13;;;;;;;16.68;45.39;103476.66;5102261;28;20445;-58
2022/01/23 05:36:50;;;;;;;1.13;0.95;;;;;;;16.68;45.28;103473.97;5101983;28;20040;-58
2022/01/23 05:39:18;;;;;;;0.80;0.80;;;;;;;16.66;45.65;103467.84;5102320;28;20088;-58
2022/01/23 05:41:44;;;;;;;1.00;1.00;;;;;;;16.67;45.50;103474.94;5093864;28;20088;-58
2022/01/23 05:44:09;;;;;;;1.23;1.13;;;;;;;16.67;45.42;103480.31;5102715;28;20038;-58
2022/01/23 05:46:34;;;;;;;1.15;1.05;;;;;;;16.66;45.42;103479.44;5102400;28;20051;-58
2022/01/23 05:49:00;;;;;;;1.10;1.00;;;;;;;16.66;45.42;103476.75;5102495;28;20024;-58
2022/01/23 05:51:25;;;;;;;1.20;1.10;;;;;;;16.67;45.37;103480.31;5102337;28;20038;-57
2022/01/23 05:53:50;;;;;;;0.85;0.85;;;;;;;16.67;45.35;103474.94;5101774;28;20024;-58
2022/01/23 05:56:16;;;;;;;0.90;0.90;;;;;;;16.67;45.35;103483.84;5082916;28;20139;-58
2022/01/23 05:58:42;;;;;;;0.93;0.93;;;;;;;16.68;45.38;103492.78;5084324;28;20028;-58
2022/01/23 06:01:07;;;;;;;1.20;1.10;;;;;;;16.67;45.35;103488.34;5083950;28;20069;-58
2022/01/23 06:03:32;;;;;;;0.90;0.90;;;;;;;16.67;45.31;103488.34;5104482;28;20043;-57
2022/01/23 06:05:58;;;;;;;1.33;1.17;;;;;;;16.67;45.41;103486.53;5101917;28;20047;-58
2022/01/23 06:08:24;;;;;;;0.80;0.80;;;;;;;16.67;45.46;103481.16;5105790;28;20038;-58
2022/01/23 06:10:57;;;;;;;1.48;1.38;;;;;;;16.68;45.34;103487.41;5103100;28;20035;-57
2022/01/23 06:13:23;;;;;;;1.20;1.10;;;;;;;16.68;45.33;103484.72;5102892;28;20024;-58
2022/01/23 06:15:48;;;;;;;1.30;1.20;;;;;;;16.68;45.35;103484.72;5090248;28;20028;-57
2022/01/23 06:18:14;;;;;;;0.93;0.93;;;;;;;16.68;45.39;103487.41;5104645;28;20047;-58
2022/01/23 06:20:39;;;;;;;1.30;1.20;;;;;;;16.68;45.40;103488.25;5093607;28;20027;-57
2022/01/23 06:23:04;;;;;;;1.20;1.10;;;;;;;16.67;45.41;103480.31;5093833;28;20032;-56
2022/01/23 06:25:34;;;;;;;1.20;1.10;;;;;;;16.66;45.37;103487.50;5095796;28;20025;-57
2022/01/23 06:28:00;;;;;;;0.95;0.95;;;;;;;16.67;45.40;103499.97;5098806;28;20077;-58
2022/01/23 06:30:25;;;;;;;0.90;0.90;;;;;;;16.67;45.42;103497.28;5079061;28;20055;-55
2022/01/23 06:32:50;;;;;;;1.10;1.00;;;;;;;16.68;45.43;103495.44;5099559;28;20035;-58
2022/01/23 06:35:15;;;;;;;0.90;0.90;;;;;;;16.68;45.46;103492.78;5104512;28;20036;-57
2022/01/23 06:37:41;;;;;;;1.05;0.95;;;;;;;16.68;45.52;103496.31;5102564;28;20051;-57
2022/01/23 06:40:06;;;;;;;1.40;1.30;;;;;;;16.68;45.53;103490.09;5096762;28;20032;-57
2022/01/23 06:42:32;;;;;;;1.23;1.10;;;;;;;16.65;45.59;103498.31;5096506;28;20043;-57
2022/01/23 06:44:58;;;;;;;0.90;0.90;;;;;;;16.69;45.60;103503.44;5095139;28;20055;-57
2022/01/23 06:47:24;;;;;;;1.05;1.00;;;;;;;16.70;45.65;103512.38;5092663;28;20028;-57
2022/01/23 06:49:49;;;;;;;0.90;0.90;;;;;;;16.70;45.65;103502.47;5096712;28;20023;-57
2022/01/23 06:52:14;;;;;;;1.25;1.13;;;;;;;16.72;45.68;103507.75;5076059;28;20025;-57
2022/01/23 06:54:39;;;;;;;1.30;1.20;;;;;;;16.70;45.63;103505.16;5100203;28;20076;-53
2022/01/23 06:57:05;;;;;;;1.30;1.20;;;;;;;16.71;45.77;103508.72;5088796;28;20060;-55
2022/01/23 06:59:30;;;;;;;1.08;1.05;;;;;;;16.72;45.77;103511.31;5091293;28;20088;-57
2022/01/23 07:01:55;;;;;;;0.90;0.90;;;;;;;16.73;45.77;103509.50;5101967;28;20032;-57
2022/01/23 07:04:21;;;;;;;1.00;1.00;;;;;;;16.71;45.75;103512.25;5097636;28;20199;-58
2022/01/23 07:06:46;;;;;;;0.93;0.93;;;;;;;16.73;45.78;103520.25;5102834;28;20480;-56
2022/01/23 07:09:11;;;;;;;0.90;0.90;;;;;;;16.74;45.77;103519.31;5096641;28;20024;-58
2022/01/23 07:11:36;;;;;;;0.98;0.98;;;;;;;16.76;45.97;103529.97;5098723;28;20034;-54
2022/01/23 07:14:02;;;;;;;0.90;0.90;;;;;;;16.74;45.93;103527.38;5098748;28;20020;-57
2022/01/23 07:16:27;;;;;;;0.90;0.90;;;;;;;16.75;45.95;103529.09;5103929;28;20491;-57
2022/01/23 07:18:53;;;;;;;0.98;0.98;;;;;;;16.70;45.99;103520.41;5101225;28;20020;-58
2022/01/23 07:21:19;;;;;;;0.82;0.82;;;;;;;16.75;45.97;103531.78;5101688;28;20042;-58
2022/01/23 07:23:50;;;;;;;1.17;1.08;;;;;;;16.75;46.06;103529.09;5101390;28;20512;-56
2022/01/23 07:26:16;;;;;;;1.48;1.05;;;;;;;16.71;46.03;103520.31;5102969;28;20031;-58
2022/01/23 07:28:43;;;;;;;0.80;0.80;;;;;;;16.75;46.07;103537.16;5101465;28;20016;-57
2022/01/23 07:31:10;;;;;;;1.10;1.08;;;;;;;16.76;46.02;103535.34;5098012;28;20080;-58
2022/01/23 07:33:38;;;;;;;1.98;1.33;;;;;;;16.77;46.20;103534.38;5098705;28;20029;-58
2022/01/23 07:36:04;;;;;;;1.30;1.20;;;;;;;16.80;46.21;103542.25;5100673;28;20024;-58
2022/01/23 07:38:30;;;;;;;1.20;1.05;;;;;;;16.80;46.19;103540.44;5101001;28;20023;-58
2022/01/23 07:40:55;;;;;;;1.63;1.52;;;;;;;16.86;46.20;103541.88;5102736;28;20020;-58
2022/01/23 07:43:21;;;;;;;2.55;1.60;;;;;;;16.89;46.14;103552.47;5095479;28;20043;-57
2022/01/23 07:45:46;;;;;;;1.60;1.38;;;;;;;16.91;46.01;103558.63;5092771;28;20020;-57
2022/01/23 07:48:11;;;;;;;2.25;1.42;;;;;;;16.93;45.93;103559.38;5084084;28;20066;-58
2022/01/23 07:50:37;;;;;;;1.48;1.40;;;;;;;16.95;46.07;103555.66;5099864;28;20034;-58
2022/01/23 07:53:03;;;;;;;2.47;1.40;;;;;;;16.94;46.16;103550.34;5098141;28;20045;-57
2022/01/23 07:55:29;;;;;;;1.98;1.65;;;;;;;16.96;46.02;103552.00;5091411;28;20055;-57
2022/01/23 07:57:59;;;;;;;3.65;1.50;;;;;;;16.97;46.03;103556.41;5097897;28;20028;-58
2022/01/23 08:00:24;;;;;;;3.15;1.50;;;;;;;16.99;45.94;103559.91;5103413;28;20055;-58
2022/01/23 08:02:49;;;;;;;2.00;1.67;;;;;;;17.00;46.00;103563.44;5081137;28;20033;-57
2022/01/23 08:05:14;;;;;;;1.55;1.45;;;;;;;17.01;46.04;103567.84;5098064;28;20052;-58
2022/01/23 08:07:40;;;;;;;1.63;1.35;;;;;;;17.01;45.91;103570.53;5103301;28;20036;-58
2022/01/23 08:10:07;;;;;;;2.28;1.48;;;;;;;17.02;46.06;103577.66;5102675;28;20023;-56
2022/01/23 08:12:33;;;;;;;1.98;1.45;;;;;;;17.02;46.10;103571.41;5101235;28;20096;-57
2022/01/23 08:14:59;;;;;;;1.50;1.35;;;;;;;17.03;46.18;103565.06;5084802;28;20028;-57
2022/01/23 08:17:25;;;;;;;1.40;1.30;;;;;;;17.03;45.98;103573.13;5100488;28;20032;-54
2022/01/23 08:19:51;;;;;;;1.40;1.30;;;;;;;17.03;45.65;103579.38;5103109;28;20111;-57
2022/01/23 08:22:17;;;;;;;1.88;1.45;;;;;;;17.03;45.87;103579.38;5103711;28;20110;-57
2022/01/23 08:24:42;;;;;;;3.42;1.98;;;;;;;17.04;46.02;103575.75;5076450;28;20089;-53
2022/01/23 08:27:07;;;;;;;2.70;1.50;;;;;;;17.04;46.16;103572.19;5102370;28;20032;-57
2022/01/23 08:29:32;;;;;;;2.35;1.33;;;;;;;17.07;46.35;103586.28;5103394;28;20028;-57
2022/01/23 08:31:58;;;;;;;1.45;1.30;;;;;;;17.07;46.02;103580.06;5103369;28;20095;-57
2022/01/23 08:34:23;;;;;;;2.13;1.38;;;;;;;17.10;46.09;103579.88;5103097;28;20032;-57
2022/01/23 08:36:48;;;;;;;1.50;1.27;;;;;;;17.10;46.06;103580.75;5102807;28;20020;-57
2022/01/23 08:39:15;;;;;;;1.73;1.60;;;;;;;17.14;45.98;103581.44;5103439;28;20019;-57
2022/01/23 08:41:49;;;;;;;3.10;1.50;;;;;;;17.14;46.14;103581.44;5102229;28;20458;-58
2022/01/23 08:44:16;;;;;;;1.95;1.67;;;;;;;17.15;46.10;103583.16;5103409;28;20077;-58
2022/01/23 08:46:41;;;;;;;1.85;1.55;;;;;;;17.15;46.02;103584.00;5103252;28;20024;-57
2022/01/23 08:49:07;;;;;;;1.95;1.60;;;;;;;17.16;45.92;103583.09;5103188;28;20023;-57
2022/01/23 08:51:32;;;;;;;4.43;1.55;;;;;;;17.19;45.95;103592.78;5103129;28;20036;-58
2022/01/23 08:53:59;;;;;;;2.05;1.50;;;;;;;17.20;45.89;103595.38;5103017;28;20020;-58
2022/01/23 08:56:24;;;;;;;1.80;1.50;;;;;;;17.21;45.79;103590.88;5101824;28;20059;-53
2022/01/23 08:58:50;;;;;;;1.67;1.40;;;;;;;17.19;45.74;103587.38;5103976;28;20024;-57
2022/01/23 09:01:15;;;;;;;1.70;1.55;;;;;;;17.23;46.12;103589.81;5104174;28;20227;-57
2022/01/23 09:03:40;;;;;;;2.08;1.60;;;;;;;17.25;45.65;103592.41;5104146;28;20027;-56
2022/01/23 09:06:07;;;;;;;1.58;1.40;;;;;;;17.22;45.49;103588.06;5104340;28;20031;-57
2022/01/23 09:08:35;;;;;;;1.60;1.50;;;;;;;17.21;45.69;103589.03;5104427;28;20111;-58
2022/01/23 09:11:07;;;;;;;2.00;1.73;;;;;;;17.27;45.50;103600.38;5102095;28;20028;-58
2022/01/23 09:15:59;;;;;;;2.65;1.67;;;;;;;17.26;45.46;103599.53;5102889;28;20027;-57
2022/01/23 09:18:24;;;;;;;3.10;1.55;;;;;;;17.26;45.83;103595.97;5094201;28;20374;-58
2022/01/23 09:20:49;;;;;;;1.67;1.25;;;;;;;17.30;45.95;103603.75;5100816;28;20038;-57
2022/01/23 09:23:15;;;;;;;2.78;1.50;;;;;;;17.33;46.01;103597.31;5099746;28;20032;-57
2022/01/23 09:25:40;;;;;;;3.45;1.70;;;;;;;17.33;46.01;103605.38;5099484;28;20039;-58
2022/01/23 09:28:12;;;;;;;1.50;1.40;;;;;;;17.35;45.99;103603.47;5082796;28;20034;-57
2022/01/23 09:30:39;;;;;;;1.73;1.42;;;;;;;17.36;45.85;103607.88;5096872;28;20048;-58
2022/01/23 09:33:05;;;;;;;1.80;1.58;;;;;;;17.37;45.94;103605.09;5100569;28;20427;-57
2022/01/23 09:35:31;;;;;;;3.65;1.90;;;;;;;17.39;45.86;103608.56;5100154;28;20047;-57
2022/01/23 09:37:56;;;;;;;2.33;1.30;;;;;;;17.40;45.97;103604.91;5101273;28;20477;-57
2022/01/23 09:40:21;;;;;;;1.90;1.52;;;;;;;17.43;45.80;103604.75;5103645;28;20050;-58
2022/01/23 09:42:52;;;;;;;2.80;1.85;;;;;;;17.45;45.65;103618.94;5104238;28;20028;-55
2022/01/23 09:45:18;;;;;;;2.30;1.85;;;;;;;17.46;46.00;103611.78;5103765;28;20913;-58
2022/01/23 09:47:43;;;;;;;1.83;1.63;;;;;;;17.47;46.01;103611.66;5105014;28;20035;-58
2022/01/23 09:50:11;;;;;;;1.90;1.70;;;;;;;17.52;45.88;103615.91;5104495;28;20669;-53
2022/01/23 09:52:37;;;;;;;4.05;1.75;;;;;;;17.54;46.03;103613.97;5105044;28;20035;-55
2022/01/23 09:55:10;;;;;;;2.65;1.40;;;;;;;17.56;45.88;103617.44;5102594;28;20039;-57
2022/01/23 09:57:37;;;;;;;1.65;1.45;;;;;;;17.58;45.95;103616.38;5100239;28;20032;-57
2022/01/23 10:00:06;;;;;;;1.60;1.50;;;;;;;17.61;45.97;103609.94;5104419;28;20051;-57
2022/01/23 10:02:31;;;;;;;1.75;1.60;;;;;;;17.60;45.96;103602.84;5104415;28;20110;-57
2022/01/23 10:04:57;;;;;;;1.50;1.40;;;;;;;17.65;45.97;103616.88;5102850;28;20060;-58
2022/01/23 10:07:22;;;;;;;2.38;1.70;;;;;;;17.68;46.00;103619.38;5083801;28;20068;-57
2022/01/23 10:10:06;;;;;;;1.77;1.50;;;;;;;17.69;45.77;103616.59;5103326;28;20069;-57
2022/01/23 10:12:32;;;;;;;1.55;1.30;;;;;;;17.72;45.73;103616.41;5103619;28;20043;-57
2022/01/23 10:14:57;;;;;;;2.17;1.48;;;;;;;17.76;45.82;103608.19;5085077;28;20024;-57
2022/01/23 10:17:22;;;;;;;2.05;1.85;;;;;;;17.78;45.72;103609.81;5103760;28;20039;-58
2022/01/23 10:19:48;;;;;;;2.03;1.50;;;;;;;17.80;45.71;103615.06;5103337;28;20060;-58
2022/01/23 10:22:14;;;;;;;1.33;1.10;;;;;;;17.83;45.63;103606.81;5103970;28;20084;-57
2022/01/23 10:24:40;;;;;;;1.90;1.55;;;;;;;17.84;45.62;103608.53;5102401;28;20406;-55
2022/01/23 10:27:06;;;;;;;1.45;1.20;;;;;;;17.87;45.54;103605.66;5102780;28;20081;-57
2022/01/23 10:29:35;;;;;;;2.20;1.30;;;;;;;17.89;45.71;103604.63;5103415;28;20049;-58
2022/01/23 10:32:23;;;;;;;2.17;1.42;;;;;;;17.93;45.65;103603.47;5103756;28;20047;-58
2022/01/23 10:35:00;;;;;;;1.65;1.55;;;;;;;17.95;45.42;103604.22;5100175;28;20043;-59
2022/01/23 10:37:29;;;;;;;2.28;1.40;;;;;;;17.98;45.36;103601.34;5102972;28;20036;-56
2022/01/23 10:39:55;;;;;;;1.27;1.17;;;;;;;18.01;45.41;103610.19;5102437;28;20028;-58
2022/01/23 10:48:25;;;;;;;2.20;1.40;;;;;;;18.09;45.36;103602.47;5103456;28;20388;-56
2022/01/23 10:50:51;;;;;;;1.50;1.13;;;;;;;18.13;45.11;103604.88;5102616;28;20047;-58
2022/01/23 10:53:17;;;;;;;1.95;1.17;;;;;;;18.16;45.31;103604.69;5102548;28;20580;-58
2022/01/23 10:55:44;;;;;;;1.63;1.50;;;;;;;18.18;45.29;103605.47;5101454;28;20068;-57
2022/01/23 10:58:20;;;;;;;1.48;1.30;;;;;;;18.22;45.25;103606.13;5102960;28;20032;-58
2022/01/23 11:00:46;;;;;;;1.95;1.40;;;;;;;18.23;45.15;103597.97;5101634;28;20035;-57
2022/01/23 11:03:17;;;;;;;3.05;2.20;;;;;;;18.27;45.00;103598.63;5103187;28;20040;-58
2022/01/23 11:05:44;;;;;;;3.92;2.90;;;;;;;18.28;45.06;103600.34;5068811;28;20035;-58
2022/01/23 11:08:23;;;;;;;6.57;3.70;;;;;;;18.32;45.28;103601.88;5086948;28;20193;-58
2022/01/23 11:10:59;;;;;;;7.43;3.83;;;;;;;18.33;45.28;103600.91;5103451;28;20055;-58
2022/01/23 11:19:19;;;;;;;9.75;4.72;;;;;;;18.31;45.06;103589.38;5099092;28;20034;-59
2022/01/23 11:21:44;;;;;;;8.68;4.15;;;;;;;18.25;44.96;103584.38;5104537;28;20051;-58
2022/01/23 11:24:11;;;;;;;7.00;4.30;;;;;;;18.31;44.99;103593.88;5104641;28;20093;-58
2022/01/23 11:26:36;;;;;;;8.77;4.55;;;;;;;18.31;45.16;103589.38;5103468;28;20016;-58
2022/01/23 11:29:14;;;;;;;7.03;4.10;;;;;;;18.31;45.39;103589.38;5104541;28;20085;-58
2022/01/23 11:31:40;;;;;;;8.30;4.63;;;;;;;18.32;45.37;103596.50;5104246;28;20023;-55
2022/01/23 11:34:06;;;;;;;8.07;4.18;;;;;;;18.33;45.43;103586.59;5103337;28;20028;-58
2022/01/23 11:36:32;;;;;;;7.10;4.55;;;;;;;18.32;45.38;103583.03;5085243;28;20502;-58
2022/01/23 11:39:05;;;;;;;9.18;4.28;;;;;;;18.30;45.38;103579.56;5104034;28;20032;-58
2022/01/23 11:51:06;;;;;;;9.43;3.92;;;;;;;18.33;45.15;103579.38;5009922;28;20077;-57
2022/01/23 11:53:52;;;;;;;6.50;4.32;;;;;;;18.33;44.95;103573.97;5016463;28;20030;-58
2022/01/23 11:56:23;;;;;;;5.40;3.53;;;;;;;18.35;45.14;103576.56;5020059;28;20045;-58
2022/01/23 11:59:09;;;;;;;4.55;3.35;;;;;;;18.33;45.02;103573.97;5020764;28;20038;-57
2022/01/23 12:01:34;;;;;;;5.95;3.33;;;;;;;18.34;45.14;103575.69;5020534;28;20029;-57
2022/01/23 12:04:08;;;;;;;5.70;3.30;;;;;;;18.35;45.05;103576.56;5019951;28;20042;-58
2022/01/23 12:06:35;;;;;;;7.22;3.92;;;;;;;18.35;44.77;103573.88;5001473;28;20069;-58
2022/01/23 12:09:10;;;;;;;5.22;2.95;;;;;;;18.36;44.96;103564.84;5001738;28;20523;-58
2022/01/23 12:11:38;;;;;;;5.93;3.28;;;;;;;18.35;44.98;103563.09;5014522;28;20046;-58
2022/01/23 12:16:57;;;;;;;7.47;3.92;;;;;;;18.37;44.56;103572.81;5020832;28;20038;-58
2022/01/23 12:19:25;;;;;;;4.68;3.10;;;;;;;18.37;44.70;103564.72;5095126;28;20093;-58
2022/01/23 12:21:52;;;;;;;6.85;3.67;;;;;;;18.37;44.83;103559.34;5085245;28;20036;-57
2022/01/23 12:24:20;;;;;;;6.43;3.78;;;;;;;18.40;44.74;103561.84;5085282;28;20059;-58
2022/01/23 12:26:46;;;;;;;4.60;2.97;;;;;;;18.41;44.56;103554.63;5102710;28;20031;-56
2022/01/23 12:29:25;;;;;;;4.50;3.17;;;;;;;18.42;44.41;103551.81;5103543;28;20048;-57
2022/01/23 12:32:28;;;;;;;4.57;2.88;;;;;;;18.42;44.66;103550.97;5103536;28;20028;-57
2022/01/23 12:34:57;;;;;;;6.15;3.40;;;;;;;18.43;44.51;103550.84;5103217;28;20036;-58
2022/01/23 12:37:23;;;;;;;7.83;3.93;;;;;;;18.43;44.63;103539.22;5095046;28;20053;-57
2022/01/23 12:40:23;;;;;;;6.88;3.20;;;;;;;18.44;44.41;103543.66;5102542;28;20028;-57
2022/01/23 12:43:18;;;;;;;4.53;2.40;;;;;;;18.45;44.40;103543.53;5102893;28;20038;-57
2022/01/23 12:45:57;;;;;;;5.55;2.80;;;;;;;18.44;44.38;103541.81;5098028;28;20031;-57
2022/01/23 12:48:26;;;;;;;3.97;2.35;;;;;;;18.43;44.37;103537.38;5103133;28;20054;-57
2022/01/23 12:50:59;;;;;;;3.37;2.23;;;;;;;18.44;44.44;103530.19;5103258;28;20032;-57
2022/01/23 12:53:45;;;;;;;4.63;2.72;;;;;;;18.46;44.33;103536.31;5076921;28;20036;-57
2022/01/23 12:56:13;;;;;;;3.55;2.40;;;;;;;18.45;44.36;103531.91;5101614;28;20059;-57
2022/01/23 12:58:40;;;;;;;4.57;2.80;;;;;;;18.44;44.24;103530.19;5103495;28;20130;-57
2022/01/23 13:01:08;;;;;;;4.38;2.65;;;;;;;18.47;44.30;103527.25;5102861;28;20043;-57
2022/01/23 13:03:36;;;;;;;3.83;2.50;;;;;;;18.46;44.21;103528.25;5085160;28;20034;-57
2022/01/23 13:06:06;;;;;;;5.15;2.50;;;;;;;18.44;44.25;103516.72;5102582;28;20566;-57
2022/01/23 13:08:34;;;;;;;3.80;2.30;;;;;;;18.45;44.39;103524.69;5095051;28;20024;-58
2022/01/23 13:18:50;;;;;;;4.43;2.75;;;;;;;18.49;44.34;103525.34;5107156;28;20039;-57
2022/01/23 13:27:24;;;;;;;3.92;2.05;;;;;;;18.50;44.30;103510.91;5100398;28;20026;-58
2022/01/23 13:30:11;;;;;;;4.50;2.38;;;;;;;18.49;44.24;103514.56;5106911;28;20035;-57
2022/01/23 13:32:44;;;;;;;2.90;1.90;;;;;;;18.49;44.57;103522.66;5098912;28;20763;-57
2022/01/23 13:35:14;;;;;;;3.30;2.22;;;;;;;18.51;44.09;103519.84;5088339;28;20031;-57
2022/01/23 13:37:43;;;;;;;;;;;;;;;18.48;44.30;103523.63;5098898;28;20024;-57
2022/01/23 13:40:13;;;;;;;3.10;1.70;;;;;;;18.49;44.36;103520.81;5106088;28;19955;-53
2022/01/23 13:59:14;;;;;;;2.67;1.77;;;;;;;18.52;44.20;103525.16;5101298;28;20043;-57
2022/01/23 14:04:18;;;;;;;2.63;1.88;;;;;;;18.53;44.07;103526.00;5106065;28;20035;-57
2022/01/23 14:06:44;;;;;;;4.97;2.15;;;;;;;18.54;44.28;103527.72;5105806;28;20078;-58
2022/01/23 14:09:12;;;;;;;3.13;1.90;;;;;;;18.54;44.00;103523.22;5106061;28;20020;-57
2022/01/23 14:11:38;;;;;;;3.22;1.80;;;;;;;18.56;44.18;103525.78;5104993;28;20412;-58
2022/01/23 14:14:13;;;;;;;2.78;1.60;;;;;;;18.57;44.24;103519.47;5105865;28;20579;-57
2022/01/23 14:16:39;;;;;;;4.75;1.80;;;;;;;18.55;44.21;103515.97;5105740;28;20032;-57
2022/01/23 14:19:23;;;;;;;2.85;1.70;;;;;;;18.59;44.26;103520.19;5087687;28;20048;-55
2022/01/23 14:21:59;;;;;;;2.28;1.58;;;;;;;18.59;43.99;103518.38;5097644;28;20020;-57
2022/01/23 14:24:33;;;;;;;2.25;1.60;;;;;;;18.60;44.12;103516.53;5105022;28;20020;-54
2022/01/23 14:27:06;;;;;;;2.80;1.75;;;;;;;18.54;44.03;103504.34;5101501;28;20020;-58
2022/01/23 14:29:35;;;;;;;2.00;1.42;;;;;;;18.60;44.23;103514.69;5105944;28;20024;-57
2022/01/23 14:32:16;;;;;;;2.15;1.90;;;;;;;18.60;44.31;103517.38;5105921;28;20027;-58
2022/01/23 14:34:41;;;;;;;2.28;1.65;;;;;;;18.59;44.25;103521.06;5087738;28;20032;-57
2022/01/23 14:37:07;;;;;;;2.35;1.50;;;;;;;18.59;44.13;103517.50;5105128;28;20042;-57
2022/01/23 14:39:33;;;;;;;1.90;1.48;;;;;;;18.60;44.09;103521.91;5105188;28;20036;-58
2022/01/23 14:42:10;;;;;;;2.45;1.42;;;;;;;18.62;44.17;103525.41;5104579;28;20020;-58